createdAt,value
2023-03-11T00:02:21.811Z,9.10
2023-03-11T00:07:24.287Z,9.43
2023-03-11T00:12:26.482Z,10.57
2023-03-11T00:17:28.874Z,6.50
2023-03-11T00:22:31.104Z,18.57
2023-03-11T00:27:33.273Z,8.63
2023-03-11T00:32:35.499Z,6.00
2023-03-11T00:37:37.724Z,5.63
2023-03-11T00:42:41.201Z,8.17
2023-03-11T00:47:46.424Z,9.60
2023-03-11T00:52:50.277Z,7.87
2023-03-11T00:57:58.390Z,11.53
2023-03-11T01:03:03.400Z,6.83
2023-03-11T01:08:06.063Z,6.93
2023-03-11T01:13:08.361Z,4.80
2023-03-11T01:18:10.585Z,6.47
2023-03-11T01:23:13.245Z,6.00
2023-03-11T01:28:15.487Z,7.93
2023-03-11T01:33:19.663Z,7.37
2023-03-11T01:38:21.905Z,8.63
2023-03-11T01:43:59.832Z,7.07
2023-03-11T01:49:13.106Z,8.30
2023-03-11T01:54:18.588Z,7.53
2023-03-11T01:59:27.506Z,7.20
2023-03-11T02:09:32.733Z,10.73
2023-03-11T02:14:36.209Z,9.57
2023-03-11T02:20:02.742Z,9.20
2023-03-11T02:25:47.381Z,6.97
2023-03-11T02:30:54.189Z,10.10
2023-03-11T02:35:57.866Z,9.50
2023-03-11T02:41:02.194Z,6.40
2023-03-11T02:46:07.032Z,8.60
2023-03-11T02:51:09.370Z,10.90
2023-03-11T02:56:12.180Z,7.23
2023-03-11T03:01:14.704Z,8.73
2023-03-11T03:06:19.781Z,10.47
2023-03-11T03:11:24.145Z,9.33
2023-03-11T03:16:26.503Z,10.37
2023-03-11T03:21:29.713Z,9.50
2023-03-11T03:26:32.529Z,9.17
2023-03-11T03:31:34.914Z,7.00
2023-03-11T03:36:40.659Z,11.77
2023-03-11T03:41:43.035Z,7.73
2023-03-11T03:46:46.181Z,9.67
2023-03-11T03:51:48.549Z,7.70
2023-03-11T03:57:03.641Z,10.73
2023-03-11T04:02:07.783Z,11.90
2023-03-11T04:07:10.026Z,10.50
2023-03-11T04:12:15.490Z,9.50
2023-03-11T04:17:18.101Z,9.87
2023-03-11T04:22:20.519Z,9.70
2023-03-11T04:27:46.281Z,17.37
2023-03-11T04:32:49.689Z,9.77
2023-03-11T04:37:52.781Z,14.30
2023-03-11T04:42:55.427Z,24.47
2023-03-11T04:47:57.823Z,13.80
2023-03-11T04:53:00.351Z,14.33
2023-03-11T04:58:02.900Z,16.80
2023-03-11T05:03:05.843Z,16.00
2023-03-11T05:08:08.885Z,18.60
2023-03-11T05:13:12.399Z,14.17
2023-03-11T05:18:16.429Z,16.70
2023-03-11T05:23:18.979Z,28.10
2023-03-11T05:28:21.332Z,20.97
2023-03-11T05:33:32.659Z,19.90
2023-03-11T05:38:36.331Z,23.10
2023-03-11T05:43:39.248Z,21.83
2023-03-11T05:48:41.587Z,17.13
2023-03-11T05:53:48.854Z,15.70
2023-03-11T05:58:58.150Z,15.33
2023-03-11T06:04:02.866Z,13.13
2023-03-11T06:09:05.229Z,12.60
2023-03-11T06:14:11.929Z,16.93
2023-03-11T06:19:14.661Z,12.77
2023-03-11T06:24:21.694Z,11.07
2023-03-11T06:29:26.905Z,12.50
2023-03-11T06:34:30.334Z,9.93
2023-03-11T06:39:32.736Z,11.00
2023-03-11T06:44:35.439Z,10.03
2023-03-11T06:49:41.124Z,8.93
2023-03-11T06:54:43.597Z,9.67
2023-03-11T06:59:46.049Z,12.23
2023-03-11T07:04:51.015Z,9.93
2023-03-11T07:10:00.135Z,9.33
2023-03-11T07:15:02.621Z,10.00
2023-03-11T07:20:07.302Z,8.33
2023-03-11T07:25:09.880Z,10.67
2023-03-11T07:30:12.453Z,10.13
2023-03-11T07:35:17.684Z,9.27
2023-03-11T07:40:20.220Z,12.00
2023-03-11T07:45:22.497Z,11.03
2023-03-11T07:50:24.850Z,10.70
2023-03-11T07:55:27.064Z,9.23
2023-03-11T08:00:29.420Z,10.07
2023-03-11T08:05:34.523Z,12.53
2023-03-11T08:10:38.171Z,12.40
2023-03-11T08:15:40.601Z,11.77
2023-03-11T08:20:43.009Z,6.07
2023-03-11T08:25:45.367Z,8.33
2023-03-11T08:30:47.679Z,8.03
2023-03-11T08:35:49.968Z,11.67
2023-03-11T08:40:52.491Z,6.93
2023-03-11T08:45:54.909Z,7.60
2023-03-11T08:50:57.455Z,10.83
2023-03-11T08:55:59.734Z,12.33
2023-03-11T09:01:02.195Z,12.30
2023-03-11T09:06:07.869Z,9.90
2023-03-11T09:11:12.674Z,9.17
2023-03-11T09:16:17.128Z,7.83
2023-03-11T09:21:20.161Z,10.87
2023-03-11T09:26:22.642Z,7.50
2023-03-11T09:31:25.287Z,8.67
2023-03-11T09:36:27.739Z,9.60
2023-03-11T09:41:57.154Z,10.17
2023-03-11T09:47:12.703Z,11.03
2023-03-11T09:52:17.496Z,8.53
2023-03-11T09:57:27.518Z,6.87
2023-03-11T10:02:30.198Z,9.82
2023-03-11T10:07:42.630Z,7.23
2023-03-11T10:13:06.260Z,10.37
2023-03-11T10:18:37.830Z,9.13
2023-03-11T10:24:04.482Z,5.67
2023-03-11T10:29:29.461Z,8.13
2023-03-11T10:34:38.463Z,7.67
2023-03-11T10:39:41.406Z,6.57
2023-03-11T10:44:44.295Z,7.67
2023-03-11T10:49:46.787Z,7.77
2023-03-11T10:55:00.299Z,8.70
2023-03-11T11:00:17.594Z,8.10
2023-03-11T11:05:22.583Z,6.67
2023-03-11T11:10:27.451Z,6.80
2023-03-11T11:16:08.999Z,9.43
2023-03-11T11:21:29.596Z,9.33
2023-03-11T11:26:32.135Z,9.30
2023-03-11T11:31:34.691Z,11.37
2023-03-11T11:36:37.438Z,13.87
2023-03-11T11:41:39.709Z,12.07
2023-03-11T11:47:09.075Z,9.17
2023-03-11T11:52:17.600Z,11.00
2023-03-11T11:57:22.131Z,10.87
2023-03-11T12:02:37.426Z,13.30
2023-03-11T12:08:01.719Z,12.27
2023-03-11T12:13:06.788Z,10.23
2023-03-11T12:18:18.157Z,8.03
2023-03-11T12:23:29.623Z,11.77
2023-03-11T12:28:38.041Z,12.07
2023-03-11T12:33:44.019Z,12.97
2023-03-11T12:38:48.229Z,11.53
2023-03-11T12:43:50.703Z,12.20
2023-03-11T12:49:08.252Z,15.73
2023-03-11T12:54:34.370Z,16.80
2023-03-11T12:59:55.865Z,19.23
2023-03-11T13:05:35.695Z,15.73
2023-03-11T13:10:48.459Z,13.20
2023-03-11T13:15:51.545Z,11.77
2023-03-11T13:21:04.689Z,12.17
2023-03-11T13:26:10.014Z,10.40
2023-03-11T13:31:24.760Z,9.33
2023-03-11T13:36:36.222Z,9.70
2023-03-11T13:41:42.348Z,13.77
2023-03-11T13:46:50.133Z,15.43
2023-03-11T13:51:54.323Z,11.33
2023-03-11T13:57:02.022Z,10.77
2023-03-11T14:02:25.637Z,15.73
2023-03-11T14:07:30.923Z,11.73
2023-03-11T14:12:33.413Z,9.13
2023-03-11T14:17:36.266Z,9.83
2023-03-11T14:22:39.021Z,13.00
2023-03-11T14:28:02.429Z,11.23
2023-03-11T14:33:26.133Z,12.13
2023-03-11T14:38:30.756Z,10.53
2023-03-11T14:43:35.418Z,11.87
2023-03-11T14:48:40.043Z,13.73
2023-03-11T14:53:56.906Z,15.07
2023-03-11T14:59:18.911Z,11.50
2023-03-11T15:04:38.797Z,13.60
2023-03-11T15:14:50.510Z,11.40
2023-03-11T15:19:53.199Z,13.93
2023-03-11T15:24:58.664Z,9.00
2023-03-11T15:30:02.873Z,14.77
2023-03-11T15:35:08.645Z,10.63
2023-03-11T15:40:43.891Z,11.43
2023-03-11T15:45:48.851Z,15.37
2023-03-11T15:50:55.937Z,9.03
2023-03-11T15:56:07.365Z,12.40
2023-03-11T16:01:10.352Z,14.73
2023-03-11T16:06:12.680Z,11.87
2023-03-11T16:11:15.533Z,12.17
2023-03-11T16:16:18.729Z,12.00
2023-03-11T16:21:23.034Z,12.77
2023-03-11T16:26:25.421Z,14.27
2023-03-11T16:31:28.941Z,11.63
2023-03-11T16:36:31.709Z,14.57
2023-03-11T16:41:42.869Z,12.43
2023-03-11T16:46:45.423Z,11.50
2023-03-11T16:51:47.956Z,13.87
2023-03-11T16:56:50.866Z,16.57
2023-03-11T17:01:53.355Z,13.57
2023-03-11T17:06:56.098Z,14.37
2023-03-11T17:12:02.146Z,11.23
2023-03-11T17:17:04.560Z,13.57
2023-03-11T17:22:08.048Z,12.53
2023-03-11T17:27:10.747Z,15.00
2023-03-11T17:32:17.236Z,17.27
2023-03-11T17:37:19.969Z,15.43
2023-03-11T17:42:22.400Z,14.97
2023-03-11T17:47:29.605Z,15.70
2023-03-11T17:52:34.881Z,16.30
2023-03-11T17:57:44.960Z,15.67
2023-03-11T18:02:50.000Z,11.90
2023-03-11T18:07:52.649Z,13.33
2023-03-11T18:12:55.463Z,15.33
2023-03-11T18:18:03.239Z,15.50
2023-03-11T18:23:08.446Z,14.60
2023-03-11T18:28:15.268Z,16.53
2023-03-11T18:51:32.321Z,12.43
2023-03-11T18:56:37.708Z,14.43
2023-03-11T19:01:42.972Z,12.60
2023-03-11T19:06:46.875Z,15.67
2023-03-11T19:11:49.296Z,16.80
2023-03-11T19:16:51.758Z,14.23
2023-03-11T19:21:54.154Z,14.73
2023-03-11T19:26:56.622Z,13.50
2023-03-11T19:31:59.220Z,15.87
2023-03-11T19:37:01.513Z,14.87
2023-03-11T19:42:03.939Z,17.17
2023-03-11T19:47:06.236Z,15.87
2023-03-11T19:52:10.121Z,15.93
2023-03-11T19:57:12.609Z,15.67
2023-03-11T20:02:14.970Z,15.07
2023-03-11T20:07:17.286Z,23.07
2023-03-11T20:12:19.517Z,16.47
2023-03-11T20:17:22.040Z,12.33
2023-03-11T20:22:24.528Z,14.03
2023-03-11T20:27:28.997Z,18.03
2023-03-11T20:32:31.331Z,14.10
2023-03-11T20:37:34.967Z,16.80
2023-03-11T20:42:37.187Z,11.47
2023-03-11T20:48:04.417Z,11.90
2023-03-11T20:53:06.852Z,12.50
2023-03-11T20:58:09.244Z,10.60
2023-03-11T21:03:11.597Z,13.57
2023-03-11T21:08:13.972Z,10.03
2023-03-11T21:13:16.483Z,14.43
2023-03-11T21:18:18.783Z,13.10
2023-03-11T21:23:21.079Z,11.90
2023-03-11T21:28:23.328Z,15.37
2023-03-11T21:33:25.782Z,13.13
2023-03-11T21:38:28.704Z,12.77
2023-03-11T21:43:31.358Z,18.37
2023-03-11T21:48:34.223Z,11.03
2023-03-11T21:53:36.584Z,12.27
2023-03-11T21:58:39.036Z,7.33
2023-03-11T22:03:41.613Z,12.87
2023-03-11T22:08:44.071Z,10.00
2023-03-11T22:13:48.035Z,10.17
2023-03-11T22:18:50.592Z,11.83
2023-03-11T22:23:52.815Z,8.17
2023-03-11T22:28:55.129Z,9.50
2023-03-11T22:33:57.453Z,10.53
2023-03-11T22:39:01.299Z,8.57
2023-03-11T22:44:03.685Z,11.93
2023-03-11T22:49:05.895Z,9.30
2023-03-11T22:54:08.171Z,10.20
2023-03-11T22:59:10.347Z,9.70
2023-03-11T23:04:12.527Z,10.17
2023-03-11T23:09:14.685Z,9.23
2023-03-11T23:14:16.869Z,6.50
2023-03-11T23:19:18.972Z,6.10
2023-03-11T23:24:21.277Z,6.83
2023-03-11T23:29:23.552Z,8.30
2023-03-11T23:34:25.904Z,6.97
2023-03-11T23:39:28.334Z,7.50
2023-03-11T23:44:30.639Z,5.53
2023-03-11T23:49:32.884Z,5.17
2023-03-11T23:54:35.780Z,5.83
2023-03-11T23:59:38.082Z,7.70
